sensor_id;sensor_type;location;lat;lon;timestamp;P1;durP1;ratioP1;P2;durP2;ratioP2
66593;SDS011;53450;42.584;23.366;2024-02-16T00:06:05;5.20;;;3.73;;
66593;SDS011;53450;42.584;23.366;2024-02-16T00:08:35;6.57;;;4.70;;
66593;SDS011;53450;42.584;23.366;2024-02-16T00:11:07;6.07;;;3.57;;
66593;SDS011;53450;42.584;23.366;2024-02-16T00:13:38;7.33;;;4.67;;
66593;SDS011;53450;42.584;23.366;2024-02-16T00:16:26;5.73;;;4.03;;
66593;SDS011;53450;42.584;23.366;2024-02-16T00:19:01;7.93;;;4.07;;
66593;SDS011;53450;42.584;23.366;2024-02-16T00:21:37;4.73;;;3.93;;
66593;SDS011;53450;42.584;23.366;2024-02-16T00:24:08;6.37;;;4.50;;
66593;SDS011;53450;42.584;23.366;2024-02-16T00:27:04;4.90;;;3.53;;
66593;SDS011;53450;42.584;23.366;2024-02-16T00:29:58;9.10;;;4.77;;
66593;SDS011;53450;42.584;23.366;2024-02-16T00:32:50;11.23;;;4.30;;
66593;SDS011;53450;42.584;23.366;2024-02-16T00:35:28;4.40;;;3.40;;
66593;SDS011;53450;42.584;23.366;2024-02-16T00:37:59;6.07;;;4.37;;
66593;SDS011;53450;42.584;23.366;2024-02-16T00:41:00;3.73;;;3.23;;
66593;SDS011;53450;42.584;23.366;2024-02-16T00:43:27;7.63;;;3.50;;
66593;SDS011;53450;42.584;23.366;2024-02-16T00:49:04;15.13;;;6.27;;
66593;SDS011;53450;42.584;23.366;2024-02-16T00:51:40;14.40;;;7.10;;
66593;SDS011;53450;42.584;23.366;2024-02-16T00:54:09;9.40;;;6.10;;
66593;SDS011;53450;42.584;23.366;2024-02-16T00:56:48;8.93;;;5.47;;
66593;SDS011;53450;42.584;23.366;2024-02-16T00:59:23;6.93;;;4.77;;
66593;SDS011;53450;42.584;23.366;2024-02-16T01:02:10;5.73;;;3.50;;
66593;SDS011;53450;42.584;23.366;2024-02-16T01:04:46;5.97;;;3.90;;
66593;SDS011;53450;42.584;23.366;2024-02-16T01:07:28;7.17;;;3.60;;
66593;SDS011;53450;42.584;23.366;2024-02-16T01:12:56;4.90;;;3.47;;
66593;SDS011;53450;42.584;23.366;2024-02-16T01:16:02;6.77;;;4.57;;
66593;SDS011;53450;42.584;23.366;2024-02-16T01:18:46;7.70;;;3.37;;
66593;SDS011;53450;42.584;23.366;2024-02-16T01:21:29;9.87;;;4.70;;
66593;SDS011;53450;42.584;23.366;2024-02-16T01:24:17;4.80;;;3.77;;
66593;SDS011;53450;42.584;23.366;2024-02-16T01:27:05;6.63;;;4.00;;
66593;SDS011;53450;42.584;23.366;2024-02-16T01:29:40;7.87;;;4.40;;
66593;SDS011;53450;42.584;23.366;2024-02-16T01:32:08;7.70;;;4.50;;
66593;SDS011;53450;42.584;23.366;2024-02-16T01:34:37;8.13;;;4.63;;
66593;SDS011;53450;42.584;23.366;2024-02-16T01:37:22;5.80;;;4.63;;
66593;SDS011;53450;42.584;23.366;2024-02-16T01:39:54;8.80;;;4.63;;
66593;SDS011;53450;42.584;23.366;2024-02-16T01:42:35;9.20;;;5.63;;
66593;SDS011;53450;42.584;23.366;2024-02-16T01:45:08;10.33;;;4.63;;
66593;SDS011;53450;42.584;23.366;2024-02-16T01:47:50;6.50;;;4.53;;
66593;SDS011;53450;42.584;23.366;2024-02-16T01:50:25;6.60;;;3.77;;
66593;SDS011;53450;42.584;23.366;2024-02-16T01:53:04;6.30;;;4.17;;
66593;SDS011;53450;42.584;23.366;2024-02-16T01:55:40;7.47;;;4.63;;
66593;SDS011;53450;42.584;23.366;2024-02-16T01:58:09;7.63;;;4.23;;
66593;SDS011;53450;42.584;23.366;2024-02-16T02:00:40;18.97;;;8.53;;
66593;SDS011;53450;42.584;23.366;2024-02-16T02:03:28;41.53;;;17.37;;
66593;SDS011;53450;42.584;23.366;2024-02-16T02:06:00;10.97;;;6.90;;
66593;SDS011;53450;42.584;23.366;2024-02-16T02:08:43;6.90;;;4.87;;
66593;SDS011;53450;42.584;23.366;2024-02-16T02:11:13;7.70;;;4.73;;
66593;SDS011;53450;42.584;23.366;2024-02-16T02:13:45;6.40;;;4.17;;
66593;SDS011;53450;42.584;23.366;2024-02-16T02:16:14;6.17;;;4.13;;
66593;SDS011;53450;42.584;23.366;2024-02-16T02:18:44;6.70;;;3.60;;
66593;SDS011;53450;42.584;23.366;2024-02-16T02:21:16;5.43;;;3.67;;
66593;SDS011;53450;42.584;23.366;2024-02-16T02:23:53;13.17;;;5.43;;
66593;SDS011;53450;42.584;23.366;2024-02-16T02:26:26;38.27;;;15.63;;
66593;SDS011;53450;42.584;23.366;2024-02-16T02:29:01;18.47;;;8.23;;
66593;SDS011;53450;42.584;23.366;2024-02-16T02:31:30;11.97;;;4.53;;
66593;SDS011;53450;42.584;23.366;2024-02-16T02:34:06;3.20;;;2.80;;
66593;SDS011;53450;42.584;23.366;2024-02-16T02:36:38;4.10;;;2.47;;
66593;SDS011;53450;42.584;23.366;2024-02-16T02:39:11;2.60;;;2.17;;
66593;SDS011;53450;42.584;23.366;2024-02-16T02:44:18;2.20;;;2.00;;
66593;SDS011;53450;42.584;23.366;2024-02-16T02:46:46;3.63;;;2.25;;
66593;SDS011;53450;42.584;23.366;2024-02-16T02:49:20;4.20;;;3.00;;
66593;SDS011;53450;42.584;23.366;2024-02-16T02:51:49;3.72;;;3.33;;
66593;SDS011;53450;42.584;23.366;2024-02-16T02:54:24;3.37;;;2.90;;
66593;SDS011;53450;42.584;23.366;2024-02-16T02:57:03;7.47;;;3.30;;
66593;SDS011;53450;42.584;23.366;2024-02-16T03:00:07;4.03;;;2.90;;
66593;SDS011;53450;42.584;23.366;2024-02-16T03:02:42;6.43;;;3.83;;
66593;SDS011;53450;42.584;23.366;2024-02-16T03:05:18;4.57;;;3.47;;
66593;SDS011;53450;42.584;23.366;2024-02-16T03:08:05;5.00;;;3.57;;
66593;SDS011;53450;42.584;23.366;2024-02-16T03:10:57;4.63;;;3.50;;
66593;SDS011;53450;42.584;23.366;2024-02-16T03:13:39;10.33;;;6.40;;
66593;SDS011;53450;42.584;23.366;2024-02-16T03:16:26;3.77;;;2.97;;
66593;SDS011;53450;42.584;23.366;2024-02-16T03:18:58;11.65;;;4.53;;
66593;SDS011;53450;42.584;23.366;2024-02-16T03:21:25;8.70;;;4.60;;
66593;SDS011;53450;42.584;23.366;2024-02-16T03:24:08;4.00;;;3.07;;
66593;SDS011;53450;42.584;23.366;2024-02-16T03:26:47;3.93;;;3.43;;
66593;SDS011;53450;42.584;23.366;2024-02-16T03:29:27;4.20;;;3.50;;
66593;SDS011;53450;42.584;23.366;2024-02-16T03:32:03;3.27;;;2.90;;
66593;SDS011;53450;42.584;23.366;2024-02-16T03:34:41;6.03;;;3.83;;
66593;SDS011;53450;42.584;23.366;2024-02-16T03:37:19;5.00;;;3.27;;
66593;SDS011;53450;42.584;23.366;2024-02-16T03:39:53;4.00;;;2.70;;
66593;SDS011;53450;42.584;23.366;2024-02-16T03:42:28;4.40;;;3.23;;
66593;SDS011;53450;42.584;23.366;2024-02-16T03:45:00;4.40;;;3.60;;
66593;SDS011;53450;42.584;23.366;2024-02-16T03:47:49;3.30;;;2.90;;
66593;SDS011;53450;42.584;23.366;2024-02-16T03:50:29;5.83;;;3.80;;
66593;SDS011;53450;42.584;23.366;2024-02-16T03:53:05;6.47;;;3.77;;
66593;SDS011;53450;42.584;23.366;2024-02-16T03:55:38;4.53;;;3.58;;
66593;SDS011;53450;42.584;23.366;2024-02-16T04:01:25;2.63;;;2.42;;
66593;SDS011;53450;42.584;23.366;2024-02-16T04:04:15;4.13;;;2.93;;
66593;SDS011;53450;42.584;23.366;2024-02-16T04:06:49;10.43;;;6.43;;
66593;SDS011;53450;42.584;23.366;2024-02-16T04:09:18;5.77;;;3.60;;
66593;SDS011;53450;42.584;23.366;2024-02-16T04:11:47;2.57;;;2.37;;
66593;SDS011;53450;42.584;23.366;2024-02-16T04:14:42;2.67;;;2.37;;
66593;SDS011;53450;42.584;23.366;2024-02-16T04:17:30;3.13;;;2.87;;
66593;SDS011;53450;42.584;23.366;2024-02-16T04:20:11;5.43;;;4.67;;
66593;SDS011;53450;42.584;23.366;2024-02-16T04:22:54;8.07;;;6.77;;
66593;SDS011;53450;42.584;23.366;2024-02-16T04:25:33;8.00;;;5.70;;
66593;SDS011;53450;42.584;23.366;2024-02-16T04:28:17;5.97;;;5.28;;
66593;SDS011;53450;42.584;23.366;2024-02-16T04:30:49;6.30;;;5.37;;
66593;SDS011;53450;42.584;23.366;2024-02-16T04:33:30;7.37;;;4.97;;
66593;SDS011;53450;42.584;23.366;2024-02-16T04:36:06;6.07;;;5.47;;
66593;SDS011;53450;42.584;23.366;2024-02-16T04:38:39;7.83;;;4.63;;
66593;SDS011;53450;42.584;23.366;2024-02-16T04:41:19;9.57;;;4.90;;
66593;SDS011;53450;42.584;23.366;2024-02-16T04:44:00;5.20;;;4.70;;
66593;SDS011;53450;42.584;23.366;2024-02-16T04:46:46;6.07;;;4.05;;
66593;SDS011;53450;42.584;23.366;2024-02-16T04:49:27;7.90;;;6.43;;
66593;SDS011;53450;42.584;23.366;2024-02-16T04:51:56;7.67;;;5.30;;
66593;SDS011;53450;42.584;23.366;2024-02-16T04:55:03;10.10;;;7.03;;
66593;SDS011;53450;42.584;23.366;2024-02-16T05:00:41;10.37;;;5.60;;
66593;SDS011;53450;42.584;23.366;2024-02-16T05:03:07;5.47;;;4.40;;
66593;SDS011;53450;42.584;23.366;2024-02-16T05:05:38;6.83;;;5.93;;
66593;SDS011;53450;42.584;23.366;2024-02-16T05:08:17;7.73;;;6.93;;
66593;SDS011;53450;42.584;23.366;2024-02-16T05:10:50;9.43;;;6.43;;
66593;SDS011;53450;42.584;23.366;2024-02-16T05:13:22;10.23;;;4.90;;
66593;SDS011;53450;42.584;23.366;2024-02-16T05:16:14;10.75;;;5.70;;
66593;SDS011;53450;42.584;23.366;2024-02-16T05:19:04;12.23;;;6.97;;
66593;SDS011;53450;42.584;23.366;2024-02-16T05:21:55;11.70;;;6.33;;
66593;SDS011;53450;42.584;23.366;2024-02-16T05:24:57;8.17;;;5.27;;
66593;SDS011;53450;42.584;23.366;2024-02-16T05:27:38;8.85;;;6.82;;
66593;SDS011;53450;42.584;23.366;2024-02-16T05:30:15;8.30;;;7.00;;
66593;SDS011;53450;42.584;23.366;2024-02-16T05:33:04;14.23;;;11.83;;
66593;SDS011;53450;42.584;23.366;2024-02-16T05:36:11;8.23;;;7.43;;
66593;SDS011;53450;42.584;23.366;2024-02-16T05:38:56;15.80;;;7.87;;
66593;SDS011;53450;42.584;23.366;2024-02-16T05:42:09;8.43;;;5.93;;
66593;SDS011;53450;42.584;23.366;2024-02-16T05:44:52;8.37;;;5.27;;
66593;SDS011;53450;42.584;23.366;2024-02-16T05:47:27;7.57;;;6.67;;
66593;SDS011;53450;42.584;23.366;2024-02-16T05:50:24;7.03;;;5.00;;
66593;SDS011;53450;42.584;23.366;2024-02-16T05:53:05;7.53;;;5.67;;
66593;SDS011;53450;42.584;23.366;2024-02-16T05:55:40;11.43;;;8.43;;
66593;SDS011;53450;42.584;23.366;2024-02-16T05:58:41;13.03;;;8.70;;
66593;SDS011;53450;42.584;23.366;2024-02-16T06:01:24;11.67;;;7.53;;
66593;SDS011;53450;42.584;23.366;2024-02-16T06:04:03;17.40;;;10.40;;
66593;SDS011;53450;42.584;23.366;2024-02-16T06:06:58;14.13;;;8.27;;
66593;SDS011;53450;42.584;23.366;2024-02-16T06:09:41;22.57;;;10.70;;
66593;SDS011;53450;42.584;23.366;2024-02-16T06:12:44;17.67;;;10.33;;
66593;SDS011;53450;42.584;23.366;2024-02-16T06:15:35;17.07;;;10.87;;
66593;SDS011;53450;42.584;23.366;2024-02-16T06:21:38;7.70;;;5.40;;
66593;SDS011;53450;42.584;23.366;2024-02-16T06:24:51;7.07;;;5.40;;
66593;SDS011;53450;42.584;23.366;2024-02-16T06:27:49;11.23;;;8.70;;
66593;SDS011;53450;42.584;23.366;2024-02-16T06:30:26;12.97;;;6.90;;
66593;SDS011;53450;42.584;23.366;2024-02-16T06:33:21;11.60;;;5.73;;
66593;SDS011;53450;42.584;23.366;2024-02-16T06:36:05;9.23;;;5.63;;
66593;SDS011;53450;42.584;23.366;2024-02-16T06:38:59;11.50;;;7.10;;
66593;SDS011;53450;42.584;23.366;2024-02-16T06:41:53;9.93;;;6.20;;
66593;SDS011;53450;42.584;23.366;2024-02-16T06:48:07;16.33;;;8.30;;
66593;SDS011;53450;42.584;23.366;2024-02-16T06:51:28;14.85;;;9.77;;
66593;SDS011;53450;42.584;23.366;2024-02-16T06:57:26;18.77;;;11.27;;
66593;SDS011;53450;42.584;23.366;2024-02-16T07:00:21;21.03;;;9.77;;
66593;SDS011;53450;42.584;23.366;2024-02-16T07:03:24;12.07;;;8.27;;
66593;SDS011;53450;42.584;23.366;2024-02-16T07:06:05;7.57;;;5.33;;
66593;SDS011;53450;42.584;23.366;2024-02-16T07:08:36;9.67;;;5.50;;
66593;SDS011;53450;42.584;23.366;2024-02-16T07:11:42;8.00;;;6.10;;
66593;SDS011;53450;42.584;23.366;2024-02-16T07:14:20;10.60;;;5.23;;
66593;SDS011;53450;42.584;23.366;2024-02-16T07:16:46;6.43;;;4.80;;
66593;SDS011;53450;42.584;23.366;2024-02-16T07:19:19;6.57;;;4.87;;
66593;SDS011;53450;42.584;23.366;2024-02-16T07:22:08;10.97;;;6.27;;
66593;SDS011;53450;42.584;23.366;2024-02-16T07:28:01;8.93;;;5.63;;
66593;SDS011;53450;42.584;23.366;2024-02-16T07:30:40;6.27;;;4.23;;
66593;SDS011;53450;42.584;23.366;2024-02-16T07:33:40;4.77;;;3.20;;
66593;SDS011;53450;42.584;23.366;2024-02-16T07:36:42;3.97;;;3.37;;
66593;SDS011;53450;42.584;23.366;2024-02-16T07:39:38;6.07;;;3.20;;
66593;SDS011;53450;42.584;23.366;2024-02-16T07:43:11;4.53;;;3.77;;
66593;SDS011;53450;42.584;23.366;2024-02-16T07:45:50;3.23;;;2.97;;
66593;SDS011;53450;42.584;23.366;2024-02-16T07:49:08;4.00;;;2.93;;
66593;SDS011;53450;42.584;23.366;2024-02-16T07:55:31;2.93;;;2.63;;
66593;SDS011;53450;42.584;23.366;2024-02-16T07:58:33;10.20;;;8.80;;
66593;SDS011;53450;42.584;23.366;2024-02-16T08:01:20;10.33;;;3.23;;
66593;SDS011;53450;42.584;23.366;2024-02-16T08:03:58;4.40;;;3.40;;
66593;SDS011;53450;42.584;23.366;2024-02-16T08:06:51;3.10;;;2.90;;
66593;SDS011;53450;42.584;23.366;2024-02-16T08:09:23;3.40;;;2.90;;
66593;SDS011;53450;42.584;23.366;2024-02-16T08:12:02;3.97;;;3.45;;
66593;SDS011;53450;42.584;23.366;2024-02-16T08:15:06;7.00;;;3.53;;
66593;SDS011;53450;42.584;23.366;2024-02-16T08:17:42;4.88;;;2.90;;
66593;SDS011;53450;42.584;23.366;2024-02-16T08:20:38;4.30;;;3.38;;
66593;SDS011;53450;42.584;23.366;2024-02-16T08:23:15;3.85;;;3.35;;
66593;SDS011;53450;42.584;23.366;2024-02-16T08:25:41;4.10;;;3.23;;
66593;SDS011;53450;42.584;23.366;2024-02-16T08:28:12;2.88;;;2.53;;
66593;SDS011;53450;42.584;23.366;2024-02-16T08:30:41;3.17;;;2.88;;
66593;SDS011;53450;42.584;23.366;2024-02-16T08:33:26;6.10;;;4.07;;
66593;SDS011;53450;42.584;23.366;2024-02-16T08:35:55;8.93;;;5.63;;
66593;SDS011;53450;42.584;23.366;2024-02-16T08:38:32;5.80;;;3.80;;
66593;SDS011;53450;42.584;23.366;2024-02-16T08:41:11;5.22;;;3.53;;
66593;SDS011;53450;42.584;23.366;2024-02-16T08:44:10;3.38;;;3.05;;
66593;SDS011;53450;42.584;23.366;2024-02-16T08:46:56;4.18;;;3.10;;
66593;SDS011;53450;42.584;23.366;2024-02-16T08:49:30;3.92;;;3.55;;
66593;SDS011;53450;42.584;23.366;2024-02-16T08:52:13;10.45;;;3.88;;
66593;SDS011;53450;42.584;23.366;2024-02-16T08:54:45;3.92;;;3.50;;
66593;SDS011;53450;42.584;23.366;2024-02-16T08:57:14;5.43;;;4.05;;
66593;SDS011;53450;42.584;23.366;2024-02-16T08:59:45;3.72;;;3.03;;
66593;SDS011;53450;42.584;23.366;2024-02-16T09:02:24;4.65;;;3.42;;
66593;SDS011;53450;42.584;23.366;2024-02-16T09:05:10;6.03;;;4.35;;
66593;SDS011;53450;42.584;23.366;2024-02-16T09:07:48;9.52;;;4.38;;
66593;SDS011;53450;42.584;23.366;2024-02-16T09:10:22;2.83;;;2.42;;
66593;SDS011;53450;42.584;23.366;2024-02-16T09:13:24;4.95;;;3.63;;
66593;SDS011;53450;42.584;23.366;2024-02-16T09:15:58;5.40;;;3.60;;
66593;SDS011;53450;42.584;23.366;2024-02-16T09:18:47;5.88;;;3.20;;
66593;SDS011;53450;42.584;23.366;2024-02-16T09:21:21;3.88;;;3.28;;
66593;SDS011;53450;42.584;23.366;2024-02-16T09:23:56;4.32;;;3.28;;
66593;SDS011;53450;42.584;23.366;2024-02-16T09:26:30;7.65;;;4.32;;
66593;SDS011;53450;42.584;23.366;2024-02-16T09:29:07;7.00;;;3.58;;
66593;SDS011;53450;42.584;23.366;2024-02-16T09:31:35;4.47;;;3.97;;
66593;SDS011;53450;42.584;23.366;2024-02-16T09:34:15;4.78;;;3.92;;
66593;SDS011;53450;42.584;23.366;2024-02-16T09:36:52;6.47;;;4.10;;
66593;SDS011;53450;42.584;23.366;2024-02-16T09:39:21;5.55;;;4.60;;
66593;SDS011;53450;42.584;23.366;2024-02-16T09:42:01;7.78;;;4.10;;
66593;SDS011;53450;42.584;23.366;2024-02-16T09:44:41;6.82;;;4.40;;
66593;SDS011;53450;42.584;23.366;2024-02-16T09:47:15;8.95;;;5.18;;
66593;SDS011;53450;42.584;23.366;2024-02-16T09:50:00;11.20;;;5.65;;
66593;SDS011;53450;42.584;23.366;2024-02-16T09:52:31;4.82;;;3.60;;
66593;SDS011;53450;42.584;23.366;2024-02-16T09:54:58;10.65;;;4.75;;
66593;SDS011;53450;42.584;23.366;2024-02-16T09:57:33;8.95;;;5.18;;
66593;SDS011;53450;42.584;23.366;2024-02-16T09:59:59;12.10;;;5.25;;
66593;SDS011;53450;42.584;23.366;2024-02-16T10:02:44;8.50;;;5.75;;
66593;SDS011;53450;42.584;23.366;2024-02-16T10:05:24;8.30;;;5.85;;
66593;SDS011;53450;42.584;23.366;2024-02-16T10:08:14;8.48;;;5.82;;
66593;SDS011;53450;42.584;23.366;2024-02-16T10:10:43;9.57;;;5.78;;
66593;SDS011;53450;42.584;23.366;2024-02-16T10:13:17;6.00;;;4.95;;
66593;SDS011;53450;42.584;23.366;2024-02-16T10:15:49;7.03;;;4.57;;
66593;SDS011;53450;42.584;23.366;2024-02-16T10:18:19;14.07;;;6.00;;
66593;SDS011;53450;42.584;23.366;2024-02-16T10:20:57;10.70;;;6.78;;
66593;SDS011;53450;42.584;23.366;2024-02-16T10:23:28;8.52;;;6.80;;
66593;SDS011;53450;42.584;23.366;2024-02-16T10:32:21;8.60;;;5.35;;
66593;SDS011;53450;42.584;23.366;2024-02-16T10:34:59;10.65;;;5.82;;
66593;SDS011;53450;42.584;23.366;2024-02-16T10:37:44;7.35;;;5.70;;
66593;SDS011;53450;42.584;23.366;2024-02-16T10:40:56;6.18;;;4.70;;
66593;SDS011;53450;42.584;23.366;2024-02-16T10:43:37;11.00;;;5.55;;
66593;SDS011;53450;42.584;23.366;2024-02-16T10:46:27;5.20;;;4.63;;
66593;SDS011;53450;42.584;23.366;2024-02-16T10:49:43;8.90;;;5.85;;
66593;SDS011;53450;42.584;23.366;2024-02-16T10:52:52;12.73;;;5.45;;
66593;SDS011;53450;42.584;23.366;2024-02-16T10:56:10;6.90;;;4.53;;
66593;SDS011;53450;42.584;23.366;2024-02-16T10:59:28;7.63;;;5.15;;
66593;SDS011;53450;42.584;23.366;2024-02-16T11:03:07;15.82;;;4.70;;
66593;SDS011;53450;42.584;23.366;2024-02-16T11:06:17;10.05;;;5.88;;
66593;SDS011;53450;42.584;23.366;2024-02-16T11:12:16;5.32;;;4.70;;
66593;SDS011;53450;42.584;23.366;2024-02-16T11:15:36;10.60;;;4.90;;
66593;SDS011;53450;42.584;23.366;2024-02-16T11:18:59;7.35;;;5.35;;
66593;SDS011;53450;42.584;23.366;2024-02-16T11:25:10;10.15;;;5.90;;
66593;SDS011;53450;42.584;23.366;2024-02-16T11:27:45;7.00;;;5.28;;
66593;SDS011;53450;42.584;23.366;2024-02-16T11:30:23;11.68;;;5.45;;
66593;SDS011;53450;42.584;23.366;2024-02-16T11:33:16;8.65;;;4.72;;
66593;SDS011;53450;42.584;23.366;2024-02-16T11:38:52;12.07;;;5.20;;
66593;SDS011;53450;42.584;23.366;2024-02-16T11:41:18;7.60;;;4.97;;
66593;SDS011;53450;42.584;23.366;2024-02-16T11:44:13;8.80;;;4.90;;
66593;SDS011;53450;42.584;23.366;2024-02-16T11:46:55;11.98;;;6.07;;
66593;SDS011;53450;42.584;23.366;2024-02-16T11:49:21;7.22;;;4.82;;
66593;SDS011;53450;42.584;23.366;2024-02-16T11:52:22;11.17;;;4.97;;
66593;SDS011;53450;42.584;23.366;2024-02-16T11:59:06;7.10;;;5.15;;
66593;SDS011;53450;42.584;23.366;2024-02-16T12:02:29;8.82;;;5.55;;
66593;SDS011;53450;42.584;23.366;2024-02-16T12:08:52;23.55;;;9.00;;
66593;SDS011;53450;42.584;23.366;2024-02-16T12:19:22;5.38;;;4.00;;
66593;SDS011;53450;42.584;23.366;2024-02-16T12:25:31;6.28;;;5.28;;
66593;SDS011;53450;42.584;23.366;2024-02-16T12:28:19;6.78;;;4.82;;
66593;SDS011;53450;42.584;23.366;2024-02-16T12:31:05;8.02;;;5.55;;
66593;SDS011;53450;42.584;23.366;2024-02-16T12:33:55;7.55;;;5.32;;
66593;SDS011;53450;42.584;23.366;2024-02-16T12:36:24;8.88;;;5.50;;
66593;SDS011;53450;42.584;23.366;2024-02-16T12:38:54;10.07;;;5.80;;
66593;SDS011;53450;42.584;23.366;2024-02-16T12:41:49;11.63;;;5.10;;
66593;SDS011;53450;42.584;23.366;2024-02-16T12:44:18;8.85;;;5.57;;
66593;SDS011;53450;42.584;23.366;2024-02-16T12:49:30;7.63;;;5.72;;
66593;SDS011;53450;42.584;23.366;2024-02-16T12:51:56;8.73;;;5.60;;
66593;SDS011;53450;42.584;23.366;2024-02-16T12:54:22;11.98;;;5.88;;
66593;SDS011;53450;42.584;23.366;2024-02-16T12:56:51;8.32;;;5.90;;
66593;SDS011;53450;42.584;23.366;2024-02-16T12:59:20;8.18;;;6.05;;
66593;SDS011;53450;42.584;23.366;2024-02-16T13:01:46;6.20;;;5.18;;
66593;SDS011;53450;42.584;23.366;2024-02-16T13:04:22;9.07;;;5.50;;
66593;SDS011;53450;42.584;23.366;2024-02-16T13:06:51;7.38;;;4.75;;
66593;SDS011;53450;42.584;23.366;2024-02-16T13:09:19;9.30;;;6.03;;
66593;SDS011;53450;42.584;23.366;2024-02-16T13:11:45;9.18;;;6.47;;
66593;SDS011;53450;42.584;23.366;2024-02-16T13:14:19;7.78;;;5.75;;
66593;SDS011;53450;42.584;23.366;2024-02-16T13:16:45;8.05;;;6.07;;
66593;SDS011;53450;42.584;23.366;2024-02-16T13:19:12;11.20;;;5.60;;
66593;SDS011;53450;42.584;23.366;2024-02-16T13:21:43;11.55;;;6.00;;
66593;SDS011;53450;42.584;23.366;2024-02-16T13:24:09;8.98;;;6.00;;
66593;SDS011;53450;42.584;23.366;2024-02-16T13:26:38;5.90;;;5.18;;
66593;SDS011;53450;42.584;23.366;2024-02-16T13:29:03;6.55;;;5.53;;
66593;SDS011;53450;42.584;23.366;2024-02-16T13:31:37;8.07;;;6.10;;
66593;SDS011;53450;42.584;23.366;2024-02-16T13:34:07;8.00;;;5.72;;
66593;SDS011;53450;42.584;23.366;2024-02-16T13:36:37;9.45;;;6.30;;
66593;SDS011;53450;42.584;23.366;2024-02-16T13:39:03;7.75;;;5.57;;
66593;SDS011;53450;42.584;23.366;2024-02-16T13:41:28;8.60;;;6.28;;
66593;SDS011;53450;42.584;23.366;2024-02-16T13:44:03;23.45;;;9.20;;
66593;SDS011;53450;42.584;23.366;2024-02-16T13:46:42;8.02;;;6.05;;
66593;SDS011;53450;42.584;23.366;2024-02-16T13:49:26;10.40;;;6.00;;
66593;SDS011;53450;42.584;23.366;2024-02-16T13:51:55;7.45;;;6.07;;
66593;SDS011;53450;42.584;23.366;2024-02-16T13:54:24;17.88;;;6.50;;
66593;SDS011;53450;42.584;23.366;2024-02-16T13:56:58;9.80;;;6.93;;
66593;SDS011;53450;42.584;23.366;2024-02-16T13:59:27;14.13;;;7.03;;
66593;SDS011;53450;42.584;23.366;2024-02-16T14:01:58;14.82;;;5.97;;
66593;SDS011;53450;42.584;23.366;2024-02-16T14:04:25;11.65;;;7.20;;
66593;SDS011;53450;42.584;23.366;2024-02-16T14:06:52;10.40;;;6.40;;
66593;SDS011;53450;42.584;23.366;2024-02-16T14:09:21;9.98;;;7.35;;
66593;SDS011;53450;42.584;23.366;2024-02-16T14:11:46;10.52;;;7.32;;
66593;SDS011;53450;42.584;23.366;2024-02-16T14:14:12;13.13;;;8.10;;
66593;SDS011;53450;42.584;23.366;2024-02-16T14:16:38;12.35;;;6.88;;
66593;SDS011;53450;42.584;23.366;2024-02-16T14:19:06;10.60;;;6.82;;
66593;SDS011;53450;42.584;23.366;2024-02-16T14:21:32;12.75;;;7.10;;
66593;SDS011;53450;42.584;23.366;2024-02-16T14:23:58;13.90;;;8.18;;
66593;SDS011;53450;42.584;23.366;2024-02-16T14:26:24;9.73;;;6.53;;
66593;SDS011;53450;42.584;23.366;2024-02-16T14:28:49;11.73;;;6.45;;
66593;SDS011;53450;42.584;23.366;2024-02-16T14:31:15;26.83;;;8.07;;
66593;SDS011;53450;42.584;23.366;2024-02-16T14:33:42;13.35;;;7.20;;
66593;SDS011;53450;42.584;23.366;2024-02-16T14:36:09;11.40;;;7.28;;
66593;SDS011;53450;42.584;23.366;2024-02-16T14:38:38;10.35;;;6.97;;
66593;SDS011;53450;42.584;23.366;2024-02-16T14:41:06;10.15;;;7.15;;
66593;SDS011;53450;42.584;23.366;2024-02-16T14:43:32;11.68;;;7.03;;
66593;SDS011;53450;42.584;23.366;2024-02-16T14:46:04;10.23;;;6.95;;
66593;SDS011;53450;42.584;23.366;2024-02-16T14:48:34;13.10;;;7.85;;
66593;SDS011;53450;42.584;23.366;2024-02-16T14:51:00;21.92;;;10.05;;
66593;SDS011;53450;42.584;23.366;2024-02-16T14:56:01;17.80;;;12.52;;
66593;SDS011;53450;42.584;23.366;2024-02-16T14:58:32;13.95;;;7.80;;
66593;SDS011;53450;42.584;23.366;2024-02-16T15:01:06;8.85;;;7.22;;
66593;SDS011;53450;42.584;23.366;2024-02-16T15:06:04;39.88;;;19.58;;
66593;SDS011;53450;42.584;23.366;2024-02-16T15:08:35;52.13;;;27.92;;
66593;SDS011;53450;42.584;23.366;2024-02-16T15:11:04;44.72;;;20.95;;
66593;SDS011;53450;42.584;23.366;2024-02-16T15:13:30;43.45;;;22.38;;
66593;SDS011;53450;42.584;23.366;2024-02-16T15:16:06;37.40;;;19.38;;
66593;SDS011;53450;42.584;23.366;2024-02-16T15:18:35;35.78;;;18.90;;
66593;SDS011;53450;42.584;23.366;2024-02-16T15:21:09;41.08;;;17.83;;
66593;SDS011;53450;42.584;23.366;2024-02-16T15:23:41;40.38;;;18.40;;
66593;SDS011;53450;42.584;23.366;2024-02-16T15:26:15;53.95;;;28.40;;
66593;SDS011;53450;42.584;23.366;2024-02-16T15:28:57;39.97;;;18.30;;
66593;SDS011;53450;42.584;23.366;2024-02-16T15:31:22;37.03;;;19.88;;
66593;SDS011;53450;42.584;23.366;2024-02-16T15:33:48;28.70;;;16.67;;
66593;SDS011;53450;42.584;23.366;2024-02-16T15:36:15;41.08;;;22.23;;
66593;SDS011;53450;42.584;23.366;2024-02-16T15:38:47;90.85;;;40.70;;
66593;SDS011;53450;42.584;23.366;2024-02-16T15:41:13;68.88;;;32.53;;
66593;SDS011;53450;42.584;23.366;2024-02-16T15:43:48;52.33;;;26.38;;
66593;SDS011;53450;42.584;23.366;2024-02-16T15:46:16;63.42;;;30.75;;
66593;SDS011;53450;42.584;23.366;2024-02-16T15:49:03;61.90;;;29.10;;
66593;SDS011;53450;42.584;23.366;2024-02-16T15:55:16;37.47;;;21.00;;
66593;SDS011;53450;42.584;23.366;2024-02-16T15:58:22;50.83;;;23.65;;
66593;SDS011;53450;42.584;23.366;2024-02-16T16:01:51;42.47;;;20.55;;
66593;SDS011;53450;42.584;23.366;2024-02-16T16:04:28;42.80;;;21.60;;
66593;SDS011;53450;42.584;23.366;2024-02-16T16:06:57;45.67;;;20.35;;
66593;SDS011;53450;42.584;23.366;2024-02-16T16:09:53;39.33;;;23.53;;
66593;SDS011;53450;42.584;23.366;2024-02-16T16:12:24;44.90;;;26.05;;
66593;SDS011;53450;42.584;23.366;2024-02-16T16:14:56;54.43;;;27.97;;
66593;SDS011;53450;42.584;23.366;2024-02-16T16:17:27;44.47;;;22.63;;
66593;SDS011;53450;42.584;23.366;2024-02-16T16:20:13;38.80;;;19.23;;
66593;SDS011;53450;42.584;23.366;2024-02-16T16:31:33;96.78;;;36.72;;
66593;SDS011;53450;42.584;23.366;2024-02-16T16:34:18;42.13;;;21.53;;
66593;SDS011;53450;42.584;23.366;2024-02-16T16:36:50;40.83;;;20.93;;
66593;SDS011;53450;42.584;23.366;2024-02-16T16:39:54;51.17;;;24.57;;
66593;SDS011;53450;42.584;23.366;2024-02-16T16:42:34;49.13;;;24.93;;
66593;SDS011;53450;42.584;23.366;2024-02-16T16:45:05;50.27;;;25.07;;
66593;SDS011;53450;42.584;23.366;2024-02-16T16:48:23;93.63;;;46.30;;
66593;SDS011;53450;42.584;23.366;2024-02-16T16:52:01;36.23;;;19.70;;
66593;SDS011;53450;42.584;23.366;2024-02-16T16:55:11;36.00;;;21.77;;
66593;SDS011;53450;42.584;23.366;2024-02-16T16:58:18;36.47;;;18.70;;
66593;SDS011;53450;42.584;23.366;2024-02-16T17:00:58;45.30;;;22.23;;
66593;SDS011;53450;42.584;23.366;2024-02-16T17:04:51;110.33;;;42.43;;
66593;SDS011;53450;42.584;23.366;2024-02-16T17:07:49;39.07;;;19.67;;
66593;SDS011;53450;42.584;23.366;2024-02-16T17:11:06;39.40;;;19.07;;
66593;SDS011;53450;42.584;23.366;2024-02-16T17:14:15;49.10;;;24.07;;
66593;SDS011;53450;42.584;23.366;2024-02-16T17:16:44;34.37;;;18.37;;
66593;SDS011;53450;42.584;23.366;2024-02-16T17:30:03;34.20;;;18.90;;